KLM207 EHAM-KJFK
Flight info
| Callsign | KLM207 |
|---|---|
| Flight time | N/A |
| Altitude | 34000 |
| Route | BERGI L602 SUPUR P1 GODOS DCT ROKAN DCT ERLOT DCT ROBEM DCT ORSUM DCT ADODO/M084F360 DCT 6030N02000W 61N030W 60N040W 58N050W DCT DORYY/N0483F360 N788A QUBIS/N0478F380 DCT ENE PARCH4 |
| Aircraft | B77W/H-SDE1E2E3FGHIJ2J3J4J5M1RWXY/LB1D1 |
Departure
| Time | 2026-05-06 06:45 |
|---|---|
| Airport | Amsterdam Airport Schiphol (EHAM) |
Arrival
| Time | N/A |
|---|---|
| Airport | John F. Kennedy International Airport (KJFK) |
| Time | Latitude | Longitude | Altitude | Speed | Heading |
|---|---|---|---|---|---|
| 2026-05-06 06:01 | 52.31321 | 4.76663 | 6 ft | 0 kts | 123° |
| 2026-05-06 06:30 | 52.31324 | 4.76655 | 5 ft | 2 kts | 123° |
| 2026-05-06 06:31 | 52.31333 | 4.76635 | 5 ft | 2 kts | 123° |
| 2026-05-06 06:31 | 52.31341 | 4.76614 | 5 ft | 2 kts | 123° |
| 2026-05-06 06:31 | 52.31349 | 4.76593 | 5 ft | 2 kts | 123° |
| 2026-05-06 06:31 | 52.31357 | 4.76573 | 5 ft | 2 kts | 105° |
| 2026-05-06 06:32 | 52.31356 | 4.76549 | 5 ft | 2 kts | 62° |
| 2026-05-06 06:32 | 52.31347 | 4.76533 | 5 ft | 2 kts | 30° |
| 2026-05-06 06:32 | 52.31338 | 4.76525 | 5 ft | 0 kts | 29° |
| 2026-05-06 06:32 | 52.31337 | 4.76524 | 5 ft | 0 kts | 29° |
| 2026-05-06 06:35 | 52.31340 | 4.76527 | 5 ft | 3 kts | 29° |
| 2026-05-06 06:35 | 52.31376 | 4.76555 | 5 ft | 5 kts | 14° |
| 2026-05-06 06:35 | 52.31416 | 4.76543 | 5 ft | 6 kts | 327° |
| 2026-05-06 06:35 | 52.31443 | 4.76495 | 5 ft | 5 kts | 300° |
| 2026-05-06 06:36 | 52.31455 | 4.76440 | 5 ft | 4 kts | 283° |
| 2026-05-06 06:36 | 52.31459 | 4.76368 | 5 ft | 10 kts | 269° |
| 2026-05-06 06:36 | 52.31455 | 4.76214 | 5 ft | 13 kts | 268° |
| 2026-05-06 06:36 | 52.31450 | 4.76069 | 5 ft | 12 kts | 266° |
| 2026-05-06 06:37 | 52.31445 | 4.75938 | 5 ft | 11 kts | 266° |
| 2026-05-06 06:37 | 52.31441 | 4.75821 | 5 ft | 9 kts | 266° |
| 2026-05-06 06:37 | 52.31437 | 4.75712 | 5 ft | 8 kts | 267° |
| 2026-05-06 06:37 | 52.31433 | 4.75616 | 5 ft | 7 kts | 267° |
| 2026-05-06 06:38 | 52.31430 | 4.75530 | 5 ft | 7 kts | 267° |
| 2026-05-06 06:38 | 52.31426 | 4.75392 | 5 ft | 15 kts | 267° |
| 2026-05-06 06:38 | 52.31418 | 4.75230 | 5 ft | 13 kts | 265° |
| 2026-05-06 06:38 | 52.31413 | 4.75084 | 5 ft | 12 kts | 268° |
| 2026-05-06 06:39 | 52.31410 | 4.74952 | 5 ft | 10 kts | 268° |
| 2026-05-06 06:39 | 52.31407 | 4.74830 | 5 ft | 11 kts | 266° |
| 2026-05-06 06:39 | 52.31401 | 4.74672 | 5 ft | 16 kts | 267° |
| 2026-05-06 06:39 | 52.31395 | 4.74480 | 5 ft | 16 kts | 267° |
| 2026-05-06 06:40 | 52.31390 | 4.74305 | 5 ft | 14 kts | 266° |
| 2026-05-06 06:40 | 52.31377 | 4.74168 | 5 ft | 10 kts | 240° |
| 2026-05-06 06:40 | 52.31314 | 4.74124 | 5 ft | 12 kts | 185° |
| 2026-05-06 06:40 | 52.31195 | 4.74115 | 5 ft | 18 kts | 182° |
| 2026-05-06 06:41 | 52.31073 | 4.74107 | 5 ft | 16 kts | 183° |
| 2026-05-06 06:41 | 52.30960 | 4.74097 | 5 ft | 15 kts | 184° |
| 2026-05-06 06:41 | 52.30859 | 4.74087 | 5 ft | 14 kts | 184° |
| 2026-05-06 06:41 | 52.30765 | 4.74077 | 5 ft | 12 kts | 183° |
| 2026-05-06 06:42 | 52.30680 | 4.74070 | 5 ft | 11 kts | 183° |
| 2026-05-06 06:42 | 52.30595 | 4.74062 | 5 ft | 15 kts | 183° |
| 2026-05-06 06:42 | 52.30472 | 4.74051 | 5 ft | 17 kts | 184° |
| 2026-05-06 06:42 | 52.30359 | 4.74037 | 5 ft | 15 kts | 189° |
| 2026-05-06 06:43 | 52.30265 | 4.73968 | 5 ft | 14 kts | 217° |
| 2026-05-06 06:43 | 52.30201 | 4.73867 | 5 ft | 11 kts | 247° |
| 2026-05-06 06:43 | 52.30199 | 4.73762 | 5 ft | 6 kts | 306° |
| 2026-05-06 06:43 | 52.30238 | 4.73740 | 5 ft | 6 kts | 0° |
| 2026-05-06 06:44 | 52.30250 | 4.73741 | 5 ft | 0 kts | 2° |
| 2026-05-06 06:44 | 52.30274 | 4.73742 | 5 ft | 24 kts | 2° |
| 2026-05-06 06:44 | 52.30782 | 4.73787 | 6 ft | 118 kts | 2° |
| 2026-05-06 06:44 | 52.31879 | 4.73889 | 128 ft | 189 kts | 6° |
| 2026-05-06 06:45 | 52.33253 | 4.73928 | 1020 ft | 210 kts | 355° |
| 2026-05-06 06:45 | 52.34581 | 4.73349 | 2219 ft | 199 kts | 344° |
| 2026-05-06 06:45 | 52.35887 | 4.72499 | 2780 ft | 206 kts | 345° |
| 2026-05-06 06:45 | 52.37281 | 4.71642 | 3183 ft | 224 kts | 344° |
| 2026-05-06 06:46 | 52.38743 | 4.70489 | 3632 ft | 243 kts | 335° |
| 2026-05-06 06:46 | 52.40242 | 4.69085 | 4223 ft | 255 kts | 334° |
| 2026-05-06 06:46 | 52.41765 | 4.67642 | 4974 ft | 259 kts | 333° |
| 2026-05-06 06:46 | 52.43341 | 4.66145 | 5742 ft | 263 kts | 333° |
| 2026-05-06 06:47 | 52.44173 | 4.65354 | 6127 ft | 265 kts | 333° |
| 2026-05-06 06:47 | 52.45754 | 4.63850 | 6856 ft | 268 kts | 332° |
| 2026-05-06 06:47 | 52.47373 | 4.62308 | 7598 ft | 271 kts | 332° |
| 2026-05-06 06:47 | 52.49020 | 4.60738 | 8318 ft | 275 kts | 332° |
| 2026-05-06 06:48 | 52.50669 | 4.59165 | 9054 ft | 277 kts | 332° |
| 2026-05-06 06:48 | 52.52314 | 4.57594 | 9745 ft | 280 kts | 331° |
| 2026-05-06 06:48 | 52.54028 | 4.55955 | 10296 ft | 290 kts | 331° |
| 2026-05-06 06:48 | 52.55804 | 4.54256 | 10635 ft | 307 kts | 331° |
| 2026-05-06 06:49 | 52.57678 | 4.52462 | 11005 ft | 323 kts | 330° |
| 2026-05-06 06:49 | 52.59671 | 4.50552 | 11434 ft | 338 kts | 330° |
| 2026-05-06 06:49 | 52.61749 | 4.48556 | 11844 ft | 354 kts | 330° |
| 2026-05-06 06:49 | 52.63888 | 4.46499 | 12271 ft | 368 kts | 330° |
| 2026-05-06 06:50 | 52.66163 | 4.44309 | 12786 ft | 382 kts | 330° |
| 2026-05-06 06:50 | 52.68436 | 4.42117 | 13466 ft | 389 kts | 330° |
| 2026-05-06 06:50 | 52.70802 | 4.39833 | 14334 ft | 393 kts | 329° |
| 2026-05-06 06:50 | 52.73069 | 4.37335 | 15130 ft | 398 kts | 321° |
| 2026-05-06 06:51 | 52.75069 | 4.34202 | 15931 ft | 403 kts | 310° |
| 2026-05-06 06:51 | 52.76741 | 4.30453 | 16737 ft | 408 kts | 301° |
| 2026-05-06 06:51 | 52.78142 | 4.26410 | 17538 ft | 412 kts | 298° |
| 2026-05-06 06:51 | 52.79528 | 4.22292 | 18345 ft | 416 kts | 298° |
| 2026-05-06 06:52 | 52.80928 | 4.18130 | 19109 ft | 421 kts | 298° |
| 2026-05-06 06:52 | 52.82368 | 4.13852 | 19840 ft | 426 kts | 298° |
| 2026-05-06 06:52 | 52.83798 | 4.09604 | 20623 ft | 429 kts | 298° |
| 2026-05-06 06:52 | 52.85246 | 4.05297 | 21353 ft | 434 kts | 298° |
| 2026-05-06 06:53 | 52.86716 | 4.00919 | 21971 ft | 440 kts | 298° |
| 2026-05-06 06:53 | 52.88203 | 3.96487 | 22632 ft | 445 kts | 297° |
| 2026-05-06 06:53 | 52.89698 | 3.92021 | 23293 ft | 449 kts | 297° |
| 2026-05-06 06:53 | 52.91224 | 3.87460 | 23946 ft | 453 kts | 297° |
| 2026-05-06 06:54 | 52.92739 | 3.82920 | 24646 ft | 456 kts | 297° |
| 2026-05-06 06:54 | 52.94267 | 3.78334 | 25271 ft | 460 kts | 297° |